createdAt,value
2019-04-21T00:00:21.022Z,14.80
2019-04-21T00:01:20.202Z,12.60
2019-04-21T00:02:26.385Z,13.70
2019-04-21T00:03:26.042Z,13.90
2019-04-21T00:04:30.063Z,13.60
2019-04-21T00:05:38.559Z,13.60
2019-04-21T00:06:41.072Z,12.00
2019-04-21T00:07:37.839Z,13.30
2019-04-21T00:08:56.302Z,11.80
2019-04-21T00:09:39.796Z,12.60
2019-04-21T00:10:40.626Z,12.80
2019-04-21T00:11:40.874Z,13.50
2019-04-21T00:12:38.871Z,13.20
2019-04-21T00:13:33.202Z,12.70
2019-04-21T00:14:31.570Z,12.20
2019-04-21T00:15:28.704Z,12.50
2019-04-21T00:16:29.096Z,12.20
2019-04-21T00:17:21.669Z,11.70
2019-04-21T00:18:19.082Z,13.20
2019-04-21T00:19:24.273Z,13.50
2019-04-21T00:20:27.433Z,12.90
2019-04-21T00:21:26.661Z,12.00
2019-04-21T00:22:30.166Z,12.80
2019-04-21T00:23:33.474Z,13.50
2019-04-21T00:24:29.028Z,12.90
2019-04-21T00:25:32.189Z,12.10
2019-04-21T00:26:42.272Z,13.40
2019-04-21T00:27:36.798Z,11.80
2019-04-21T00:28:42.790Z,12.70
2019-04-21T00:29:38.618Z,12.30
2019-04-21T00:30:40.079Z,14.00
2019-04-21T00:31:34.143Z,13.30
2019-04-21T00:32:29.285Z,11.80
2019-04-21T00:33:24.400Z,12.20
2019-04-21T00:34:17.754Z,12.40
2019-04-21T00:35:22.499Z,11.90
2019-04-21T00:36:25.241Z,11.80
2019-04-21T00:37:26.714Z,12.50
2019-04-21T00:38:40.357Z,13.80
2019-04-21T00:39:43.347Z,11.30
2019-04-21T00:40:41.697Z,12.80
2019-04-21T00:41:39.919Z,11.80
2019-04-21T00:42:34.537Z,11.70
2019-04-21T00:43:35.377Z,12.40
2019-04-21T00:44:27.435Z,12.00
2019-04-21T00:45:31.091Z,11.60
2019-04-21T00:46:32.356Z,12.20
2019-04-21T00:47:34.158Z,11.60
2019-04-21T00:48:45.055Z,13.00
2019-04-21T00:49:32.009Z,11.70
2019-04-21T00:50:42.663Z,11.30
2019-04-21T00:51:47.050Z,11.10
2019-04-21T00:53:00.461Z,11.00
2019-04-21T00:53:45.124Z,10.80
2019-04-21T00:54:43.466Z,11.40
2019-04-21T00:55:41.039Z,11.00
2019-04-21T00:56:41.268Z,10.40
2019-04-21T00:57:41.331Z,10.60
2019-04-21T00:58:39.594Z,10.60
2019-04-21T00:59:40.085Z,11.10
2019-04-21T01:00:40.836Z,12.50
2019-04-21T01:01:37.878Z,10.70
2019-04-21T01:02:47.153Z,11.00
2019-04-21T01:03:37.296Z,11.10
2019-04-21T01:04:43.332Z,9.70
2019-04-21T01:05:42.723Z,12.30
2019-04-21T01:06:38.267Z,11.00
2019-04-21T01:07:37.143Z,10.20
2019-04-21T01:08:39.761Z,9.70
2019-04-21T01:09:31.746Z,10.10
2019-04-21T01:10:28.728Z,9.50
2019-04-21T01:11:42.555Z,10.70
2019-04-21T01:12:37.985Z,9.50
2019-04-21T01:13:41.567Z,9.30
2019-04-21T01:14:46.928Z,9.20
2019-04-21T01:16:39.332Z,9.10
2019-04-21T01:17:35.714Z,9.30
2019-04-21T01:18:39.357Z,8.60
2019-04-21T01:19:36.242Z,8.60
2019-04-21T01:20:17.560Z,8.40
2019-04-21T01:21:14.906Z,8.40
2019-04-21T01:22:14.845Z,9.60
2019-04-21T01:23:14.829Z,8.40
2019-04-21T01:24:21.663Z,8.10
2019-04-21T01:25:22.962Z,9.00
2019-04-21T01:26:28.832Z,9.20
2019-04-21T01:27:27.486Z,8.50
2019-04-21T01:28:32.821Z,8.30
2019-04-21T01:29:37.216Z,9.20
2019-04-21T01:30:39.008Z,9.10
2019-04-21T01:31:30.522Z,8.80
2019-04-21T01:32:35.615Z,9.20
2019-04-21T01:33:39.669Z,9.00
2019-04-21T01:34:33.070Z,9.70
2019-04-21T01:35:36.675Z,8.20
2019-04-21T01:36:33.402Z,8.20
2019-04-21T01:37:40.867Z,7.90
2019-04-21T01:38:39.838Z,9.60
2019-04-21T01:39:42.669Z,9.20
2019-04-21T01:40:36.163Z,9.50
2019-04-21T01:41:43.193Z,8.20
2019-04-21T01:42:31.453Z,8.40
2019-04-21T01:43:35.778Z,8.30
2019-04-21T01:44:36.205Z,7.90
2019-04-21T01:45:35.608Z,9.80
2019-04-21T01:46:30.994Z,8.80
2019-04-21T01:47:31.514Z,8.90
2019-04-21T01:48:31.934Z,9.30
2019-04-21T01:49:26.712Z,8.10
2019-04-21T01:50:31.695Z,8.60
2019-04-21T01:51:32.145Z,9.30
2019-04-21T01:52:38.439Z,9.40
2019-04-21T01:53:38.200Z,9.10
2019-04-21T01:54:35.517Z,9.50
2019-04-21T01:55:35.606Z,10.00
2019-04-21T01:56:34.601Z,8.30
2019-04-21T01:57:33.291Z,8.70
2019-04-21T01:58:25.478Z,8.30
2019-04-21T02:00:30.855Z,9.50
2019-04-21T02:01:33.521Z,8.90
2019-04-21T02:02:37.880Z,9.10
2019-04-21T02:03:48.706Z,9.10
2019-04-21T02:04:36.364Z,9.40
2019-04-21T02:05:37.528Z,8.40
2019-04-21T02:06:33.081Z,10.80
2019-04-21T02:07:32.640Z,8.70
2019-04-21T02:08:34.537Z,8.50
2019-04-21T02:09:30.922Z,8.60
2019-04-21T02:10:39.779Z,9.30
2019-04-21T02:11:35.798Z,9.10
2019-04-21T02:12:34.604Z,9.10
2019-04-21T02:13:35.508Z,9.60
2019-04-21T02:14:39.079Z,10.00
2019-04-21T02:15:36.123Z,9.80
2019-04-21T02:16:34.065Z,11.80
2019-04-21T02:17:29.269Z,9.60
2019-04-21T02:18:33.682Z,11.10
2019-04-21T02:19:28.466Z,10.40
2019-04-21T02:20:21.575Z,9.90
2019-04-21T02:21:27.660Z,11.20
2019-04-21T02:22:46.348Z,10.60
2019-04-21T02:23:44.013Z,12.20
2019-04-21T02:24:58.012Z,11.20
2019-04-21T02:25:36.882Z,11.10
2019-04-21T02:26:36.130Z,10.40
2019-04-21T02:27:29.845Z,10.30
2019-04-21T02:29:34.051Z,11.70
2019-04-21T02:30:50.370Z,10.60
2019-04-21T02:31:46.245Z,10.50
2019-04-21T02:32:43.833Z,10.90
2019-04-21T02:33:45.835Z,11.50
2019-04-21T02:34:52.890Z,12.50
2019-04-21T02:37:46.738Z,11.40
2019-04-21T02:38:52.334Z,10.60
2019-04-21T02:40:51.210Z,10.10
2019-04-21T02:41:55.779Z,10.40
2019-04-21T02:42:46.347Z,12.20
2019-04-21T02:43:50.110Z,11.40
2019-04-21T02:44:49.432Z,12.50
2019-04-21T02:45:40.970Z,14.70
2019-04-21T02:46:42.526Z,11.40
2019-04-21T02:47:50.681Z,11.70
2019-04-21T02:48:43.411Z,12.20
2019-04-21T02:49:57.285Z,10.90
2019-04-21T02:50:39.852Z,11.00
2019-04-21T02:51:45.808Z,11.50
2019-04-21T02:55:38.748Z,11.10
2019-04-21T02:57:43.485Z,11.60
2019-04-21T02:58:44.421Z,10.20
2019-04-21T02:59:42.314Z,10.80
2019-04-21T03:00:44.938Z,10.80
2019-04-21T03:01:55.890Z,11.50
2019-04-21T03:03:54.823Z,11.50
2019-04-21T03:04:42.657Z,9.50
2019-04-21T03:06:39.716Z,9.50
2019-04-21T03:07:46.417Z,9.80
2019-04-21T03:08:50.067Z,9.60
2019-04-21T03:10:43.415Z,11.10
2019-04-21T03:11:35.929Z,10.20
2019-04-21T03:12:38.625Z,9.70
2019-04-21T03:13:42.975Z,9.70
2019-04-21T03:14:50.219Z,10.40
2019-04-21T03:15:47.414Z,9.90
2019-04-21T03:16:31.198Z,9.10
2019-04-21T03:17:43.907Z,10.00
2019-04-21T03:18:43.756Z,9.00
2019-04-21T03:20:42.137Z,9.60
2019-04-21T03:21:45.648Z,9.50
2019-04-21T03:23:46.032Z,9.00
2019-04-21T03:25:00.869Z,8.30
2019-04-21T03:25:52.093Z,8.70
2019-04-21T03:28:39.663Z,9.20
2019-04-21T03:31:11.775Z,9.40
2019-04-21T03:32:05.643Z,9.20
2019-04-21T03:40:32.411Z,9.10
2019-04-21T03:41:48.775Z,9.70
2019-04-21T03:43:43.810Z,12.10
2019-04-21T03:44:37.343Z,9.80
2019-04-21T03:45:38.642Z,11.10
2019-04-21T03:47:34.548Z,11.00
2019-04-21T03:48:55.612Z,9.50
2019-04-21T03:50:33.538Z,11.60
2019-04-21T03:51:40.221Z,10.50
2019-04-21T03:54:41.498Z,10.20
2019-04-21T03:58:04.603Z,10.90
2019-04-21T03:58:46.842Z,10.00
2019-04-21T03:59:40.645Z,10.50
2019-04-21T04:01:36.670Z,10.20
2019-04-21T04:02:45.587Z,10.40
2019-04-21T04:04:00.723Z,9.70
2019-04-21T04:04:34.140Z,10.10
2019-04-21T04:05:49.411Z,9.80
2019-04-21T04:07:44.746Z,9.80
2019-04-21T04:08:52.580Z,10.40
2019-04-21T04:09:48.302Z,10.00
2019-04-21T04:10:46.371Z,10.30
2019-04-21T04:11:44.108Z,10.60
2019-04-21T04:12:36.570Z,9.30
2019-04-21T04:13:49.725Z,9.90
2019-04-21T04:14:40.502Z,10.30
2019-04-21T04:16:38.860Z,10.00
2019-04-21T04:17:32.874Z,10.20
2019-04-21T04:18:53.255Z,10.20
2019-04-21T04:20:36.916Z,10.60
2019-04-21T04:21:37.202Z,10.60
2019-04-21T04:22:37.830Z,9.90
2019-04-21T04:24:44.707Z,10.60
2019-04-21T04:25:40.656Z,11.40
2019-04-21T04:27:51.277Z,10.50
2019-04-21T04:29:32.125Z,9.90
2019-04-21T04:30:39.541Z,9.60
2019-04-21T04:31:43.194Z,10.90
2019-04-21T04:34:41.245Z,11.10
2019-04-21T04:35:45.782Z,10.10
2019-04-21T04:37:36.695Z,9.80
2019-04-21T04:38:41.702Z,9.70
2019-04-21T04:40:34.667Z,10.20
2019-04-21T04:42:39.229Z,9.40
2019-04-21T04:43:59.131Z,9.30
2019-04-21T04:44:46.316Z,9.60
2019-04-21T04:46:48.879Z,11.50
2019-04-21T04:47:49.961Z,10.10
2019-04-21T04:48:38.498Z,10.10
2019-04-21T04:50:45.427Z,10.70
2019-04-21T04:51:47.606Z,9.80
2019-04-21T04:52:41.959Z,9.60
2019-04-21T04:53:40.421Z,10.40
2019-04-21T04:55:33.738Z,9.80
2019-04-21T04:56:54.343Z,10.30
2019-04-21T04:59:43.025Z,9.70
2019-04-21T05:03:47.420Z,10.00
2019-04-21T05:05:34.631Z,9.50
2019-04-21T05:06:43.547Z,10.50
2019-04-21T05:08:01.405Z,10.30
2019-04-21T05:08:49.282Z,9.60
2019-04-21T05:09:37.085Z,9.10
2019-04-21T05:10:47.690Z,9.20
2019-04-21T05:12:30.378Z,9.80
2019-04-21T05:13:34.440Z,10.00
2019-04-21T05:14:30.345Z,9.10
2019-04-21T05:15:32.202Z,9.50
2019-04-21T05:16:43.147Z,9.60
2019-04-21T05:18:34.526Z,9.30
2019-04-21T05:20:32.230Z,9.10
2019-04-21T05:22:33.461Z,9.40
2019-04-21T05:23:29.224Z,10.00
2019-04-21T05:24:23.089Z,9.90
2019-04-21T05:25:20.782Z,10.30
2019-04-21T05:26:14.320Z,9.50
2019-04-21T05:27:18.438Z,9.60
2019-04-21T05:28:15.245Z,10.30
2019-04-21T05:29:15.871Z,10.80
2019-04-21T05:30:29.138Z,9.60
2019-04-21T05:31:25.411Z,10.20
2019-04-21T05:32:26.445Z,10.80
2019-04-21T05:33:29.308Z,11.50
2019-04-21T05:34:22.102Z,10.20
2019-04-21T05:35:22.831Z,8.80
2019-04-21T05:36:23.996Z,8.90
2019-04-21T05:37:25.754Z,9.00
2019-04-21T05:38:21.682Z,9.70
2019-04-21T05:39:21.608Z,9.50
2019-04-21T05:40:20.130Z,11.20
2019-04-21T05:41:13.899Z,9.30
2019-04-21T05:42:10.447Z,9.30
2019-04-21T05:43:25.876Z,9.30
2019-04-21T05:44:30.392Z,9.40
2019-04-21T05:45:26.877Z,9.10
2019-04-21T05:46:25.442Z,9.90
2019-04-21T05:47:26.309Z,10.90
2019-04-21T05:49:25.315Z,9.60
2019-04-21T05:50:20.508Z,9.30
2019-04-21T05:51:20.493Z,9.20
2019-04-21T05:52:21.543Z,10.10
2019-04-21T05:53:31.367Z,9.50
2019-04-21T05:54:29.845Z,9.40
2019-04-21T05:55:24.445Z,10.40
2019-04-21T05:56:27.249Z,9.30
2019-04-21T05:57:22.240Z,9.70
2019-04-21T05:58:21.394Z,9.90
2019-04-21T05:59:22.062Z,9.60
2019-04-21T06:00:23.059Z,10.10
2019-04-21T06:01:28.513Z,9.10
2019-04-21T06:02:22.258Z,9.70
2019-04-21T06:03:23.146Z,10.10
2019-04-21T06:04:41.612Z,9.90
2019-04-21T06:05:40.750Z,9.60
2019-04-21T06:06:27.496Z,10.50
2019-04-21T06:07:23.093Z,9.30
2019-04-21T06:08:23.503Z,9.60
2019-04-21T06:09:29.710Z,10.70
2019-04-21T06:10:31.529Z,10.70
2019-04-21T06:11:28.859Z,10.60
2019-04-21T06:12:21.091Z,9.40
2019-04-21T06:13:26.507Z,10.20
2019-04-21T06:14:25.139Z,9.10
2019-04-21T06:15:21.386Z,9.80
2019-04-21T06:16:44.133Z,11.10
2019-04-21T06:17:32.393Z,9.00
2019-04-21T06:18:27.054Z,10.60
2019-04-21T06:19:31.433Z,9.20
2019-04-21T06:20:20.645Z,9.70
2019-04-21T06:21:22.228Z,9.00
2019-04-21T06:22:18.840Z,9.80
2019-04-21T06:23:25.114Z,9.00
2019-04-21T06:24:25.144Z,8.40
2019-04-21T06:28:28.414Z,8.60
2019-04-21T06:29:23.657Z,8.90
2019-04-21T06:30:17.708Z,8.70
2019-04-21T06:31:33.950Z,8.70
2019-04-21T06:33:27.870Z,9.40
2019-04-21T06:34:27.852Z,10.30
2019-04-21T06:35:28.159Z,8.60
2019-04-21T06:37:40.204Z,8.80
2019-04-21T06:38:28.243Z,10.00
2019-04-21T06:39:25.919Z,8.60
2019-04-21T06:41:29.678Z,9.10
2019-04-21T06:42:21.869Z,7.60
2019-04-21T06:43:42.885Z,7.80
2019-04-21T06:44:39.855Z,8.00
2019-04-21T06:45:31.421Z,7.80
2019-04-21T06:46:26.431Z,8.30
2019-04-21T06:48:30.520Z,8.30
2019-04-21T06:49:16.169Z,8.00
2019-04-21T06:50:22.943Z,7.30
2019-04-21T06:51:22.451Z,6.90
2019-04-21T06:52:43.545Z,7.60
2019-04-21T06:53:36.004Z,9.10
2019-04-21T06:54:22.028Z,8.30
2019-04-21T06:55:20.314Z,7.50
2019-04-21T06:56:21.804Z,9.10
2019-04-21T06:57:21.852Z,8.10
2019-04-21T06:58:18.157Z,8.30
2019-04-21T06:59:13.482Z,7.80
2019-04-21T07:00:23.072Z,8.70
2019-04-21T07:01:26.572Z,8.40
2019-04-21T07:02:40.920Z,7.90
2019-04-21T07:03:32.405Z,8.10
2019-04-21T07:05:22.824Z,7.40
2019-04-21T07:06:23.852Z,9.10
2019-04-21T07:07:17.232Z,9.00
2019-04-21T07:08:31.335Z,8.30
2019-04-21T07:09:25.459Z,8.20
2019-04-21T07:10:22.758Z,8.90
2019-04-21T07:11:21.596Z,8.00
2019-04-21T07:12:20.251Z,7.90
2019-04-21T07:13:15.303Z,8.60
2019-04-21T07:15:19.854Z,8.50
2019-04-21T07:16:19.165Z,8.00
2019-04-21T07:17:24.611Z,8.90
2019-04-21T07:18:19.192Z,8.00
2019-04-21T07:20:17.133Z,7.60
2019-04-21T07:21:23.443Z,7.90
2019-04-21T07:22:22.937Z,8.20
2019-04-21T07:23:16.249Z,7.70
2019-04-21T07:25:24.814Z,8.10
2019-04-21T07:26:22.254Z,7.80
2019-04-21T07:27:22.273Z,8.70
2019-04-21T07:28:22.101Z,8.80
2019-04-21T07:29:20.434Z,7.40
2019-04-21T07:30:20.902Z,8.20
2019-04-21T07:31:17.791Z,7.20
2019-04-21T07:32:18.368Z,7.50
2019-04-21T07:33:47.726Z,7.70
2019-04-21T07:34:21.300Z,7.60
2019-04-21T07:35:31.706Z,8.20
2019-04-21T07:36:21.391Z,7.40
2019-04-21T07:37:20.028Z,7.20
2019-04-21T07:38:16.561Z,7.30
2019-04-21T07:39:14.891Z,8.10
2019-04-21T07:40:17.815Z,9.30
2019-04-21T07:41:09.210Z,8.00
2019-04-21T07:42:13.732Z,7.30
2019-04-21T07:43:10.955Z,8.00
2019-04-21T07:44:10.346Z,7.10
2019-04-21T07:45:13.015Z,7.10
2019-04-21T07:46:10.735Z,7.40
2019-04-21T07:47:17.109Z,8.50
2019-04-21T07:48:14.004Z,7.80
2019-04-21T07:49:14.014Z,8.10
2019-04-21T07:50:14.616Z,7.40
2019-04-21T07:51:20.858Z,7.80
2019-04-21T07:52:20.776Z,8.20
2019-04-21T07:53:22.784Z,7.70
2019-04-21T07:54:31.241Z,8.60
2019-04-21T07:56:00.792Z,8.20
2019-04-21T07:57:08.311Z,9.00
2019-04-21T07:58:22.627Z,8.60
2019-04-21T07:59:23.897Z,7.70
2019-04-21T08:01:18.413Z,10.00
2019-04-21T08:02:16.972Z,8.50
2019-04-21T08:03:15.935Z,9.50
2019-04-21T08:04:24.452Z,9.00
2019-04-21T08:06:22.773Z,9.10
2019-04-21T08:07:21.793Z,9.60
2019-04-21T08:08:12.089Z,9.40
2019-04-21T08:09:12.232Z,9.90
2019-04-21T08:10:14.447Z,9.30
2019-04-21T08:11:12.332Z,9.70
2019-04-21T08:12:08.095Z,10.30
2019-04-21T08:13:22.099Z,9.60
2019-04-21T08:14:17.693Z,9.70
2019-04-21T08:15:23.996Z,9.00
2019-04-21T08:16:21.157Z,10.40
2019-04-21T08:17:16.645Z,10.80
2019-04-21T08:18:11.804Z,9.60
2019-04-21T08:19:13.047Z,9.60
2019-04-21T08:20:15.674Z,9.40
2019-04-21T08:21:11.018Z,10.70
2019-04-21T08:22:18.639Z,11.20
2019-04-21T08:23:14.548Z,10.90
2019-04-21T08:24:14.561Z,10.80
2019-04-21T08:25:16.531Z,12.10
2019-04-21T08:26:32.438Z,10.40
2019-04-21T08:27:18.866Z,11.10
2019-04-21T08:28:15.875Z,10.90
2019-04-21T08:29:20.684Z,11.40
2019-04-21T08:30:11.579Z,11.20
2019-04-21T08:31:14.317Z,12.00
2019-04-21T08:32:19.959Z,12.00
2019-04-21T08:33:27.284Z,11.70
2019-04-21T08:34:17.790Z,11.90
2019-04-21T08:35:34.665Z,11.60
2019-04-21T08:37:12.376Z,11.90
2019-04-21T08:38:13.825Z,11.50
2019-04-21T08:39:13.226Z,11.90
2019-04-21T08:40:21.352Z,10.50
2019-04-21T08:41:17.060Z,10.90
2019-04-21T08:42:10.939Z,11.90
2019-04-21T08:43:23.820Z,11.00
2019-04-21T08:44:10.662Z,10.20
2019-04-21T08:45:15.211Z,10.60
2019-04-21T08:46:13.716Z,10.30
2019-04-21T08:47:15.481Z,11.30
2019-04-21T08:48:10.270Z,10.90
2019-04-21T08:49:15.816Z,11.00
2019-04-21T08:50:15.183Z,10.10
2019-04-21T08:52:21.607Z,10.20
2019-04-21T08:53:22.562Z,9.50
2019-04-21T08:54:17.109Z,10.70
2019-04-21T08:55:12.427Z,10.10
2019-04-21T08:56:19.630Z,9.50
2019-04-21T08:57:14.574Z,10.10
2019-04-21T08:58:25.296Z,9.50
2019-04-21T08:59:21.884Z,9.20
2019-04-21T09:00:16.808Z,11.00
2019-04-21T09:01:17.675Z,10.10
2019-04-21T09:03:14.653Z,10.40
2019-04-21T09:04:13.195Z,10.00
2019-04-21T09:05:11.137Z,10.80
2019-04-21T09:06:16.964Z,9.90
2019-04-21T09:07:07.393Z,10.30
2019-04-21T09:08:13.746Z,10.00
2019-04-21T09:09:10.906Z,11.20
2019-04-21T09:10:11.015Z,11.40
2019-04-21T09:11:07.023Z,11.40
2019-04-21T09:12:10.907Z,11.90
2019-04-21T09:13:10.091Z,12.10
2019-04-21T09:14:13.075Z,11.30
2019-04-21T09:15:08.395Z,10.80
2019-04-21T09:16:09.784Z,11.90
2019-04-21T09:17:07.843Z,10.80
2019-04-21T09:18:03.059Z,11.50
2019-04-21T09:19:01.986Z,10.50
2019-04-21T09:20:50.861Z,10.10
2019-04-21T09:21:14.786Z,11.10
2019-04-21T09:22:05.815Z,10.80
2019-04-21T09:23:06.493Z,10.10
2019-04-21T09:24:14.813Z,11.10
2019-04-21T09:25:16.296Z,10.40
2019-04-21T09:26:05.451Z,11.10
2019-04-21T09:27:11.335Z,10.80
2019-04-21T09:28:08.079Z,12.40
2019-04-21T09:29:00.704Z,10.50
2019-04-21T09:29:55.990Z,10.20
2019-04-21T09:30:56.901Z,12.20
2019-04-21T09:31:54.497Z,10.50
2019-04-21T09:32:53.445Z,10.70
2019-04-21T09:33:53.944Z,10.50
2019-04-21T09:34:51.320Z,10.50
2019-04-21T09:35:58.791Z,10.80
2019-04-21T09:36:58.707Z,10.40
2019-04-21T09:37:57.282Z,13.30
2019-04-21T09:38:59.349Z,12.00
2019-04-21T09:39:53.763Z,10.40
2019-04-21T09:40:54.014Z,10.60
2019-04-21T09:41:54.496Z,10.70
2019-04-21T09:42:55.979Z,10.40
2019-04-21T09:43:53.646Z,11.50
2019-04-21T09:44:53.783Z,10.10
2019-04-21T09:45:50.075Z,11.20
2019-04-21T09:46:54.884Z,10.20
2019-04-21T09:47:59.059Z,11.50
2019-04-21T09:48:58.257Z,11.10
2019-04-21T09:49:49.875Z,11.10
2019-04-21T09:50:50.419Z,10.40
2019-04-21T09:51:50.542Z,10.50
2019-04-21T09:52:55.379Z,11.50
2019-04-21T09:53:58.313Z,11.10
2019-04-21T09:55:01.176Z,12.40
2019-04-21T09:55:55.891Z,11.70
2019-04-21T09:56:54.932Z,12.40
2019-04-21T09:57:55.090Z,11.50
2019-04-21T09:58:53.246Z,10.80
2019-04-21T09:59:59.919Z,10.70
2019-04-21T10:01:01.426Z,11.60
2019-04-21T10:02:01.598Z,10.90
2019-04-21T10:02:56.763Z,10.60
2019-04-21T10:03:53.722Z,11.90
2019-04-21T10:04:50.190Z,11.70
2019-04-21T10:05:49.743Z,11.70
2019-04-21T10:06:49.729Z,11.40
2019-04-21T10:07:49.062Z,11.00
2019-04-21T10:08:57.476Z,10.60
2019-04-21T10:09:50.014Z,11.40
2019-04-21T10:10:49.109Z,11.20
2019-04-21T10:11:48.865Z,11.20
2019-04-21T10:12:49.842Z,10.60
2019-04-21T10:13:48.849Z,10.50
2019-04-21T10:14:49.423Z,11.40
2019-04-21T10:15:48.707Z,11.20
2019-04-21T10:16:49.546Z,10.50
2019-04-21T10:17:49.623Z,10.10
2019-04-21T10:18:48.554Z,11.50
2019-04-21T10:19:48.596Z,10.90
2019-04-21T10:20:49.190Z,10.00
2019-04-21T10:21:48.430Z,10.10
2019-04-21T10:22:48.985Z,10.00
2019-04-21T10:23:48.320Z,11.20
2019-04-21T10:24:48.847Z,11.30
2019-04-21T10:25:48.466Z,11.50
2019-04-21T10:26:49.251Z,10.60
2019-04-21T10:27:49.400Z,10.60
2019-04-21T10:28:49.026Z,12.10
2019-04-21T10:29:49.129Z,11.30
2019-04-21T10:30:49.007Z,11.60
2019-04-21T10:31:48.163Z,11.20
2019-04-21T10:32:48.373Z,11.80
2019-04-21T10:33:48.405Z,11.40
2019-04-21T10:34:47.828Z,11.00
2019-04-21T10:35:48.835Z,11.30
2019-04-21T10:36:48.981Z,11.20
2019-04-21T10:38:01.239Z,11.20
2019-04-21T10:38:51.547Z,11.60
2019-04-21T10:39:47.647Z,11.10
2019-04-21T10:40:47.627Z,11.70
2019-04-21T10:41:47.772Z,11.20
2019-04-21T10:42:48.094Z,10.70
2019-04-21T10:43:47.418Z,10.90
2019-04-21T10:44:47.373Z,11.30
2019-04-21T10:45:48.692Z,10.50
2019-04-21T10:46:49.997Z,10.30
2019-04-21T10:47:47.310Z,10.00
2019-04-21T10:48:48.484Z,10.40
2019-04-21T10:49:47.149Z,10.00
2019-04-21T10:50:47.302Z,12.30
2019-04-21T10:51:47.079Z,11.80
2019-04-21T10:52:47.013Z,9.70
2019-04-21T10:53:50.441Z,9.70
2019-04-21T10:55:08.313Z,8.80
2019-04-21T10:56:01.586Z,9.40
2019-04-21T10:56:47.902Z,9.60
2019-04-21T10:57:46.782Z,9.50
2019-04-21T10:58:46.758Z,10.50
2019-04-21T10:59:50.443Z,9.40
2019-04-21T11:00:48.303Z,9.10
2019-04-21T11:01:47.129Z,9.20
2019-04-21T11:02:46.568Z,9.50
2019-04-21T11:03:46.743Z,8.50
2019-04-21T11:04:46.976Z,8.40
2019-04-21T11:05:46.419Z,8.70
2019-04-21T11:06:46.525Z,8.80
2019-04-21T11:07:55.331Z,8.30
2019-04-21T11:08:50.300Z,9.10
2019-04-21T11:09:46.378Z,8.30
2019-04-21T11:10:47.581Z,9.00
2019-04-21T11:11:48.190Z,7.80
2019-04-21T11:12:47.588Z,8.10
2019-04-21T11:13:46.411Z,9.00
2019-04-21T11:14:47.153Z,8.90
2019-04-21T11:15:47.365Z,9.00
2019-04-21T11:16:47.581Z,9.10
2019-04-21T11:17:47.300Z,9.40
2019-04-21T11:18:46.070Z,9.20
2019-04-21T11:19:46.518Z,8.20
2019-04-21T11:20:46.630Z,7.80
2019-04-21T11:21:46.979Z,8.10
2019-04-21T11:22:45.661Z,8.20
2019-04-21T11:23:45.875Z,8.50
2019-04-21T11:24:46.922Z,8.00
2019-04-21T11:25:46.213Z,8.10
2019-04-21T11:26:45.585Z,8.60
2019-04-21T11:27:46.758Z,7.80
2019-04-21T11:28:45.388Z,8.10
2019-04-21T11:29:45.349Z,7.90
2019-04-21T11:30:46.606Z,7.80
2019-04-21T11:31:45.331Z,9.00
2019-04-21T11:32:47.601Z,7.30
2019-04-21T11:33:45.313Z,8.10
2019-04-21T11:34:45.385Z,8.40
2019-04-21T11:35:45.506Z,7.60
2019-04-21T11:36:45.930Z,7.70
2019-04-21T11:37:46.143Z,8.60
2019-04-21T11:39:05.593Z,7.50
2019-04-21T11:39:52.200Z,7.80
2019-04-21T11:40:45.616Z,8.10
2019-04-21T11:41:45.757Z,8.60
2019-04-21T11:42:45.992Z,8.90
2019-04-21T11:43:45.347Z,7.70
2019-04-21T11:44:45.033Z,7.90
2019-04-21T11:45:44.792Z,8.30
2019-04-21T11:46:44.633Z,7.30
2019-04-21T11:47:45.895Z,8.20
2019-04-21T11:48:44.470Z,7.90
2019-04-21T11:49:45.257Z,7.40
2019-04-21T11:50:44.377Z,7.50
2019-04-21T11:51:44.992Z,8.10
2019-04-21T11:52:45.158Z,8.10
2019-04-21T11:53:44.242Z,8.30
2019-04-21T11:54:44.639Z,7.60
2019-04-21T11:55:47.003Z,7.50
2019-04-21T11:56:45.143Z,7.20
2019-04-21T11:57:46.962Z,8.60
2019-04-21T11:58:44.046Z,7.50
2019-04-21T11:59:43.973Z,7.70
2019-04-21T12:00:45.278Z,8.30
2019-04-21T12:01:43.887Z,9.50
2019-04-21T12:02:43.865Z,8.90
2019-04-21T12:03:43.792Z,7.70
2019-04-21T12:04:43.750Z,7.50
2019-04-21T12:05:43.701Z,7.90
2019-04-21T12:06:47.131Z,9.50
2019-04-21T12:07:43.634Z,7.10
2019-04-21T12:08:47.623Z,7.10
2019-04-21T12:09:43.780Z,8.00
2019-04-21T12:10:43.476Z,6.80
2019-04-21T12:11:43.428Z,6.70
2019-04-21T12:12:43.406Z,6.50
2019-04-21T12:13:43.342Z,6.50
2019-04-21T12:14:43.928Z,7.40
2019-04-21T12:15:43.248Z,6.40
2019-04-21T12:16:43.372Z,6.60
2019-04-21T12:17:43.974Z,6.60
2019-04-21T12:18:43.115Z,6.80
2019-04-21T12:19:43.063Z,6.80
2019-04-21T12:20:43.148Z,6.60
2019-04-21T12:21:53.475Z,6.70
2019-04-21T12:22:43.325Z,6.30
2019-04-21T12:23:42.974Z,6.80
2019-04-21T12:24:43.037Z,6.80
2019-04-21T12:25:42.973Z,7.40
2019-04-21T12:26:42.742Z,7.10
2019-04-21T12:27:43.869Z,6.00
2019-04-21T12:28:43.771Z,5.50
2019-04-21T12:29:43.946Z,5.30
2019-04-21T12:30:42.565Z,5.70
2019-04-21T12:31:43.473Z,6.30
2019-04-21T12:32:42.495Z,6.00
2019-04-21T12:33:43.491Z,5.90
2019-04-21T12:34:43.691Z,5.80
2019-04-21T12:35:42.340Z,5.80
2019-04-21T12:36:43.691Z,7.20
2019-04-21T12:37:42.776Z,7.10
2019-04-21T12:38:48.888Z,6.80
2019-04-21T12:39:43.060Z,6.50
2019-04-21T12:40:42.334Z,6.50
2019-04-21T12:41:42.629Z,5.40
2019-04-21T12:42:42.411Z,6.00
2019-04-21T12:43:42.542Z,5.40
2019-04-21T12:44:43.322Z,5.60
2019-04-21T12:45:42.049Z,6.40
2019-04-21T12:46:41.847Z,6.20
2019-04-21T12:47:41.933Z,7.10
2019-04-21T12:48:42.087Z,5.80
2019-04-21T12:49:41.711Z,7.10
2019-04-21T12:50:41.783Z,5.90
2019-04-21T12:51:41.871Z,6.30
2019-04-21T12:52:41.954Z,6.70
2019-04-21T12:53:41.705Z,6.30
2019-04-21T12:54:41.786Z,6.60
2019-04-21T12:55:44.822Z,5.80
2019-04-21T12:56:41.406Z,6.60
2019-04-21T12:57:41.597Z,6.00
2019-04-21T12:58:41.667Z,7.60
2019-04-21T12:59:42.544Z,6.60
2019-04-21T13:00:41.207Z,6.20
2019-04-21T13:01:41.290Z,7.10
2019-04-21T13:02:41.117Z,6.80
2019-04-21T13:03:41.808Z,7.60
2019-04-21T13:04:42.004Z,7.40
2019-04-21T13:05:40.982Z,7.00
2019-04-21T13:06:41.512Z,6.10
2019-04-21T13:07:41.510Z,5.90
2019-04-21T13:08:53.004Z,7.40
2019-04-21T13:09:41.981Z,6.10
2019-04-21T13:10:42.176Z,6.10
2019-04-21T13:11:41.375Z,5.80
2019-04-21T13:12:41.703Z,6.30
2019-04-21T13:13:41.916Z,6.20
2019-04-21T13:14:42.001Z,6.20
2019-04-21T13:15:40.530Z,5.80
2019-04-21T13:16:41.270Z,6.20
2019-04-21T13:17:43.704Z,6.40
2019-04-21T13:18:41.560Z,6.00
2019-04-21T13:19:41.217Z,8.10
2019-04-21T13:20:40.444Z,6.00
2019-04-21T13:21:40.439Z,6.70
2019-04-21T13:22:40.221Z,6.30
2019-04-21T13:23:41.099Z,6.30
2019-04-21T13:24:40.118Z,6.20
2019-04-21T13:25:41.553Z,7.30
2019-04-21T13:26:47.265Z,6.20
2019-04-21T13:27:40.885Z,8.00
2019-04-21T13:28:40.470Z,6.20
2019-04-21T13:29:39.898Z,6.80
2019-04-21T13:30:40.194Z,6.10
2019-04-21T13:31:40.413Z,7.60
2019-04-21T13:32:40.767Z,5.80
2019-04-21T13:33:39.938Z,7.70
2019-04-21T13:34:40.102Z,5.90
2019-04-21T13:35:41.219Z,6.20
2019-04-21T13:36:39.577Z,7.20
2019-04-21T13:37:39.678Z,6.70
2019-04-21T13:38:49.198Z,5.70
2019-04-21T13:40:03.338Z,6.10
2019-04-21T13:40:53.384Z,5.90
2019-04-21T13:41:53.256Z,6.70
2019-04-21T13:42:45.661Z,7.10
2019-04-21T13:43:39.357Z,6.90
2019-04-21T13:44:39.242Z,7.50
2019-04-21T13:45:39.474Z,6.50
2019-04-21T13:46:40.426Z,6.30
2019-04-21T13:47:39.083Z,6.50
2019-04-21T13:48:40.328Z,8.20
2019-04-21T13:49:39.262Z,5.80
2019-04-21T13:50:39.487Z,5.90
2019-04-21T13:51:38.895Z,6.20
2019-04-21T13:52:38.849Z,5.90
2019-04-21T13:53:39.918Z,6.30
2019-04-21T13:54:39.862Z,6.40
2019-04-21T13:55:39.295Z,5.80
2019-04-21T13:56:38.674Z,5.90
2019-04-21T13:57:38.872Z,5.60
2019-04-21T13:58:40.002Z,7.70
2019-04-21T13:59:38.544Z,5.70
2019-04-21T14:00:39.866Z,5.40
2019-04-21T14:01:39.570Z,5.40
2019-04-21T14:02:38.685Z,5.80
2019-04-21T14:03:39.634Z,5.80
2019-04-21T14:04:38.303Z,5.70
2019-04-21T14:05:38.300Z,6.70
2019-04-21T14:06:38.447Z,6.30
2019-04-21T14:07:38.538Z,6.70
2019-04-21T14:08:41.630Z,6.00
2019-04-21T14:09:47.674Z,5.80
2019-04-21T14:10:38.035Z,7.40
2019-04-21T14:11:37.988Z,5.30
2019-04-21T14:12:38.246Z,5.70
2019-04-21T14:13:38.559Z,6.40
2019-04-21T14:14:38.630Z,6.90
2019-04-21T14:15:37.826Z,6.40
2019-04-21T14:16:38.176Z,7.20
2019-04-21T14:17:39.093Z,5.30
2019-04-21T14:18:38.572Z,5.80
2019-04-21T14:19:37.632Z,6.60
2019-04-21T14:20:37.574Z,5.40
2019-04-21T14:21:37.527Z,6.60
2019-04-21T14:22:38.074Z,5.70